Terminal Aerodrome Forecast
Issued by NWS

Home | Current Version | Previous Version | Text Only | Print | Product List | Glossary On
Versions: 1 2 3 4 5 6 7 8 9 10 11 12 13 14 15 16 17
000
FTUS43 KOAX 240500
TAFBFF
TAF
KBFF 240520Z 2406/2506 14009KT P6SM SCT200
     FM241800 27010G17KT P6SM SCT120
     FM250100 26008KT P6SM SCT150=

USA.gov is the U.S. government's official web portal to all federal, state and local government web resources and services.